sensor_id;sensor_type;location;lat;lon;timestamp;pressure;altitude;pressure_sealevel;temperature;humidity
31082;BME280;17737;52.586;13.284;2022-09-09T00:00:13;100656.75;;;15.59;100.00
31082;BME280;17737;52.586;13.284;2022-09-09T00:02:43;100655.91;;;15.52;100.00
31082;BME280;17737;52.586;13.284;2022-09-09T00:05:19;100651.28;;;15.56;100.00
31082;BME280;17737;52.586;13.284;2022-09-09T00:07:58;100643.31;;;15.26;100.00
31082;BME280;17737;52.586;13.284;2022-09-09T00:10:30;100642.34;;;15.04;100.00
31082;BME280;17737;52.586;13.284;2022-09-09T00:13:04;100646.88;;;14.92;100.00
31082;BME280;17737;52.586;13.284;2022-09-09T00:15:44;100643.44;;;14.95;100.00
31082;BME280;17737;52.586;13.284;2022-09-09T00:18:24;100652.09;;;15.08;100.00
31082;BME280;17737;52.586;13.284;2022-09-09T00:21:00;100651.69;;;15.10;100.00
31082;BME280;17737;52.586;13.284;2022-09-09T00:23:32;100651.13;;;15.34;100.00
31082;BME280;17737;52.586;13.284;2022-09-09T00:26:04;100649.63;;;15.40;100.00
31082;BME280;17737;52.586;13.284;2022-09-09T00:28:39;100653.22;;;15.04;100.00
31082;BME280;17737;52.586;13.284;2022-09-09T00:31:14;100644.34;;;15.10;100.00
31082;BME280;17737;52.586;13.284;2022-09-09T00:33:46;100638.81;;;14.99;100.00
31082;BME280;17737;52.586;13.284;2022-09-09T00:36:17;100636.94;;;15.07;100.00
31082;BME280;17737;52.586;13.284;2022-09-09T00:38:49;100638.94;;;15.14;100.00
31082;BME280;17737;52.586;13.284;2022-09-09T00:41:21;100640.16;;;15.23;100.00
31082;BME280;17737;52.586;13.284;2022-09-09T00:43:57;100645.13;;;15.11;100.00
31082;BME280;17737;52.586;13.284;2022-09-09T00:46:40;100631.56;;;15.14;100.00
31082;BME280;17737;52.586;13.284;2022-09-09T00:49:29;100627.25;;;14.65;100.00
31082;BME280;17737;52.586;13.284;2022-09-09T00:52:12;100627.94;;;14.55;100.00
31082;BME280;17737;52.586;13.284;2022-09-09T00:54:52;100642.25;;;14.93;100.00
31082;BME280;17737;52.586;13.284;2022-09-09T00:57:27;100641.06;;;14.90;100.00
31082;BME280;17737;52.586;13.284;2022-09-09T00:59:59;100637.81;;;14.74;100.00
31082;BME280;17737;52.586;13.284;2022-09-09T01:02:47;100643.28;;;14.81;100.00
31082;BME280;17737;52.586;13.284;2022-09-09T01:05:27;100637.97;;;14.92;100.00
31082;BME280;17737;52.586;13.284;2022-09-09T01:08:05;100636.13;;;14.62;100.00
31082;BME280;17737;52.586;13.284;2022-09-09T01:10:43;100642.53;;;14.81;100.00
31082;BME280;17737;52.586;13.284;2022-09-09T01:13:22;100643.19;;;14.70;100.00
31082;BME280;17737;52.586;13.284;2022-09-09T01:15:53;100641.56;;;14.62;100.00
31082;BME280;17737;52.586;13.284;2022-09-09T01:18:27;100648.44;;;14.90;100.00
31082;BME280;17737;52.586;13.284;2022-09-09T01:21:03;100649.88;;;14.80;100.00
31082;BME280;17737;52.586;13.284;2022-09-09T01:23:41;100644.69;;;15.05;100.00
31082;BME280;17737;52.586;13.284;2022-09-09T01:26:29;100647.91;;;15.18;100.00
31082;BME280;17737;52.586;13.284;2022-09-09T01:29:00;100642.44;;;15.14;100.00
31082;BME280;17737;52.586;13.284;2022-09-09T01:31:30;100647.91;;;15.18;100.00
31082;BME280;17737;52.586;13.284;2022-09-09T01:34:04;100645.06;;;15.04;100.00
31082;BME280;17737;52.586;13.284;2022-09-09T01:36:38;100641.97;;;15.05;100.00
31082;BME280;17737;52.586;13.284;2022-09-09T01:39:10;100638.34;;;14.90;100.00
31082;BME280;17737;52.586;13.284;2022-09-09T01:41:39;100643.13;;;15.04;100.00
31082;BME280;17737;52.586;13.284;2022-09-09T01:44:07;100640.84;;;15.10;100.00
31082;BME280;17737;52.586;13.284;2022-09-09T01:46:36;100636.50;;;15.02;100.00
31082;BME280;17737;52.586;13.284;2022-09-09T01:49:05;100638.81;;;14.99;100.00
31082;BME280;17737;52.586;13.284;2022-09-09T01:51:36;100649.78;;;15.10;100.00
31082;BME280;17737;52.586;13.284;2022-09-09T01:54:05;100646.91;;;14.96;100.00
31082;BME280;17737;52.586;13.284;2022-09-09T01:56:35;100641.03;;;14.87;100.00
31082;BME280;17737;52.586;13.284;2022-09-09T01:59:24;100645.03;;;15.00;100.00
31082;BME280;17737;52.586;13.284;2022-09-09T02:02:09;100647.47;;;15.16;100.00
31082;BME280;17737;52.586;13.284;2022-09-09T02:04:39;100644.09;;;14.85;100.00
31082;BME280;17737;52.586;13.284;2022-09-09T02:07:19;100638.84;;;14.62;100.00
31082;BME280;17737;52.586;13.284;2022-09-09T02:09:57;100641.81;;;14.50;100.00
31082;BME280;17737;52.586;13.284;2022-09-09T02:12:30;100654.31;;;14.58;100.00
31082;BME280;17737;52.586;13.284;2022-09-09T02:15:00;100642.72;;;14.65;100.00
31082;BME280;17737;52.586;13.284;2022-09-09T02:17:33;100646.34;;;14.42;100.00
31082;BME280;17737;52.586;13.284;2022-09-09T02:20:06;100654.69;;;14.57;100.00
31082;BME280;17737;52.586;13.284;2022-09-09T02:22:37;100660.00;;;14.49;100.00
31082;BME280;17737;52.586;13.284;2022-09-09T02:25:09;100664.53;;;14.38;100.00
31082;BME280;17737;52.586;13.284;2022-09-09T02:27:40;100659.03;;;14.31;100.00
31082;BME280;17737;52.586;13.284;2022-09-09T02:30:12;100659.31;;;14.26;100.00
31082;BME280;17737;52.586;13.284;2022-09-09T02:32:41;100658.59;;;14.29;100.00
31082;BME280;17737;52.586;13.284;2022-09-09T02:35:12;100664.88;;;14.37;100.00
31082;BME280;17737;52.586;13.284;2022-09-09T02:37:44;100657.78;;;14.25;100.00
31082;BME280;17737;52.586;13.284;2022-09-09T02:40:13;100661.00;;;14.34;100.00
31082;BME280;17737;52.586;13.284;2022-09-09T02:42:44;100656.38;;;14.38;100.00
31082;BME280;17737;52.586;13.284;2022-09-09T02:45:14;100662.88;;;14.30;100.00
31082;BME280;17737;52.586;13.284;2022-09-09T02:47:47;100648.53;;;14.30;100.00
31082;BME280;17737;52.586;13.284;2022-09-09T02:50:22;100665.44;;;14.49;100.00
31082;BME280;17737;52.586;13.284;2022-09-09T02:52:58;100667.97;;;14.65;100.00
31082;BME280;17737;52.586;13.284;2022-09-09T02:55:37;100661.00;;;14.68;100.00
31082;BME280;17737;52.586;13.284;2022-09-09T02:58:08;100659.16;;;14.42;100.00
31082;BME280;17737;52.586;13.284;2022-09-09T03:00:39;100657.69;;;14.18;100.00
31082;BME280;17737;52.586;13.284;2022-09-09T03:03:08;100657.97;;;14.09;100.00
31082;BME280;17737;52.586;13.284;2022-09-09T03:05:36;100657.66;;;14.14;100.00
31082;BME280;17737;52.586;13.284;2022-09-09T03:08:04;100663.94;;;14.22;100.00
31082;BME280;17737;52.586;13.284;2022-09-09T03:10:32;100664.16;;;14.40;100.00
31082;BME280;17737;52.586;13.284;2022-09-09T03:13:01;100666.16;;;14.46;100.00
31082;BME280;17737;52.586;13.284;2022-09-09T03:15:30;100671.09;;;14.37;100.00
31082;BME280;17737;52.586;13.284;2022-09-09T03:17:58;100667.91;;;14.28;100.00
31082;BME280;17737;52.586;13.284;2022-09-09T03:20:27;100666.50;;;14.11;100.00
31082;BME280;17737;52.586;13.284;2022-09-09T03:22:56;100677.09;;;14.50;100.00
31082;BME280;17737;52.586;13.284;2022-09-09T03:25:24;100673.94;;;14.48;100.00
31082;BME280;17737;52.586;13.284;2022-09-09T03:27:53;100674.47;;;14.27;100.00
31082;BME280;17737;52.586;13.284;2022-09-09T03:30:21;100675.28;;;14.31;100.00
31082;BME280;17737;52.586;13.284;2022-09-09T03:32:51;100681.13;;;14.33;100.00
31082;BME280;17737;52.586;13.284;2022-09-09T03:35:19;100679.34;;;14.14;100.00
31082;BME280;17737;52.586;13.284;2022-09-09T03:37:47;100679.09;;;13.96;100.00
31082;BME280;17737;52.586;13.284;2022-09-09T03:40:15;100676.63;;;14.14;100.00
31082;BME280;17737;52.586;13.284;2022-09-09T03:42:44;100678.78;;;14.01;100.00
31082;BME280;17737;52.586;13.284;2022-09-09T03:45:12;100688.72;;;14.20;100.00
31082;BME280;17737;52.586;13.284;2022-09-09T03:47:39;100681.94;;;14.37;100.00
31082;BME280;17737;52.586;13.284;2022-09-09T03:50:09;100691.34;;;14.13;100.00
31082;BME280;17737;52.586;13.284;2022-09-09T03:52:37;100697.91;;;14.42;100.00
31082;BME280;17737;52.586;13.284;2022-09-09T03:55:07;100686.78;;;14.21;100.00
31082;BME280;17737;52.586;13.284;2022-09-09T03:57:35;100686.50;;;14.30;100.00
31082;BME280;17737;52.586;13.284;2022-09-09T04:00:04;100681.41;;;14.24;100.00
31082;BME280;17737;52.586;13.284;2022-09-09T04:02:33;100671.88;;;14.08;100.00
31082;BME280;17737;52.586;13.284;2022-09-09T04:05:01;100682.00;;;14.11;100.00
31082;BME280;17737;52.586;13.284;2022-09-09T04:07:30;100682.41;;;14.13;100.00
31082;BME280;17737;52.586;13.284;2022-09-09T04:09:58;100682.00;;;14.11;100.00
31082;BME280;17737;52.586;13.284;2022-09-09T04:12:26;100682.75;;;14.08;100.00
31082;BME280;17737;52.586;13.284;2022-09-09T04:14:53;100676.41;;;13.96;100.00
31082;BME280;17737;52.586;13.284;2022-09-09T04:17:21;100670.31;;;13.76;100.00
31082;BME280;17737;52.586;13.284;2022-09-09T04:19:49;100679.34;;;13.88;100.00
31082;BME280;17737;52.586;13.284;2022-09-09T04:22:16;100677.31;;;13.81;100.00
31082;BME280;17737;52.586;13.284;2022-09-09T04:24:46;100681.66;;;13.86;100.00
31082;BME280;17737;52.586;13.284;2022-09-09T04:27:14;100684.09;;;13.94;100.00
31082;BME280;17737;52.586;13.284;2022-09-09T04:29:41;100687.59;;;13.95;100.00
31082;BME280;17737;52.586;13.284;2022-09-09T04:32:09;100681.59;;;14.09;100.00
31082;BME280;17737;52.586;13.284;2022-09-09T04:34:37;100683.22;;;13.87;100.00
31082;BME280;17737;52.586;13.284;2022-09-09T04:37:05;100686.50;;;13.99;100.00
31082;BME280;17737;52.586;13.284;2022-09-09T04:39:33;100691.56;;;14.01;100.00
31082;BME280;17737;52.586;13.284;2022-09-09T04:42:03;100693.72;;;14.18;100.00
31082;BME280;17737;52.586;13.284;2022-09-09T04:44:30;100695.75;;;14.25;100.00
31082;BME280;17737;52.586;13.284;2022-09-09T04:46:58;100693.34;;;14.20;100.00
31082;BME280;17737;52.586;13.284;2022-09-09T04:49:26;100706.25;;;14.30;100.00
31082;BME280;17737;52.586;13.284;2022-09-09T04:51:53;100706.84;;;14.16;100.00
31082;BME280;17737;52.586;13.284;2022-09-09T04:54:21;100701.03;;;14.14;100.00
31082;BME280;17737;52.586;13.284;2022-09-09T04:56:49;100708.00;;;14.15;100.00
31082;BME280;17737;52.586;13.284;2022-09-09T04:59:19;100701.53;;;13.93;100.00
31082;BME280;17737;52.586;13.284;2022-09-09T05:01:47;100707.41;;;13.99;100.00
31082;BME280;17737;52.586;13.284;2022-09-09T05:04:16;100707.41;;;14.29;100.00
31082;BME280;17737;52.586;13.284;2022-09-09T05:06:45;100708.78;;;14.16;100.00
31082;BME280;17737;52.586;13.284;2022-09-09T05:09:13;100707.75;;;14.24;100.00
31082;BME280;17737;52.586;13.284;2022-09-09T05:11:41;100715.16;;;14.27;100.00
31082;BME280;17737;52.586;13.284;2022-09-09T05:14:08;100707.06;;;14.31;100.00
31082;BME280;17737;52.586;13.284;2022-09-09T05:16:39;100714.19;;;14.42;100.00
31082;BME280;17737;52.586;13.284;2022-09-09T05:19:06;100713.75;;;14.70;100.00
31082;BME280;17737;52.586;13.284;2022-09-09T05:21:35;100704.69;;;14.56;100.00
31082;BME280;17737;52.586;13.284;2022-09-09T05:24:04;100706.56;;;14.52;100.00
31082;BME280;17737;52.586;13.284;2022-09-09T05:26:32;100709.69;;;14.54;100.00
31082;BME280;17737;52.586;13.284;2022-09-09T05:29:02;100702.88;;;14.67;100.00
31082;BME280;17737;52.586;13.284;2022-09-09T05:31:30;100703.53;;;14.94;100.00
31082;BME280;17737;52.586;13.284;2022-09-09T05:34:00;100699.63;;;14.91;100.00
31082;BME280;17737;52.586;13.284;2022-09-09T05:36:28;100704.59;;;14.86;100.00
31082;BME280;17737;52.586;13.284;2022-09-09T05:38:56;100703.41;;;14.80;100.00
31082;BME280;17737;52.586;13.284;2022-09-09T05:41:23;100706.59;;;14.89;100.00
31082;BME280;17737;52.586;13.284;2022-09-09T05:43:51;100710.38;;;14.81;100.00
31082;BME280;17737;52.586;13.284;2022-09-09T05:46:19;100703.16;;;14.95;100.00
31082;BME280;17737;52.586;13.284;2022-09-09T05:48:49;100699.31;;;14.96;100.00
31082;BME280;17737;52.586;13.284;2022-09-09T05:51:20;100704.41;;;15.02;100.00
31082;BME280;17737;52.586;13.284;2022-09-09T05:53:50;100709.16;;;15.12;100.00
31082;BME280;17737;52.586;13.284;2022-09-09T05:56:19;100710.78;;;15.20;100.00
31082;BME280;17737;52.586;13.284;2022-09-09T05:58:50;100711.19;;;15.22;100.00
31082;BME280;17737;52.586;13.284;2022-09-09T06:01:20;100715.13;;;15.28;100.00
31082;BME280;17737;52.586;13.284;2022-09-09T06:03:49;100708.59;;;15.36;100.00
31082;BME280;17737;52.586;13.284;2022-09-09T06:06:20;100713.53;;;15.27;100.00
31082;BME280;17737;52.586;13.284;2022-09-09T06:08:51;100706.50;;;15.19;100.00
31082;BME280;17737;52.586;13.284;2022-09-09T06:11:20;100723.97;;;15.18;100.00
31082;BME280;17737;52.586;13.284;2022-09-09T06:13:49;100726.19;;;15.50;100.00
31082;BME280;17737;52.586;13.284;2022-09-09T06:16:20;100725.09;;;15.61;100.00
31082;BME280;17737;52.586;13.284;2022-09-09T06:18:50;100719.91;;;15.42;100.00
31082;BME280;17737;52.586;13.284;2022-09-09T06:21:22;100728.69;;;15.69;100.00
31082;BME280;17737;52.586;13.284;2022-09-09T06:23:51;100735.28;;;15.68;100.00
31082;BME280;17737;52.586;13.284;2022-09-09T06:26:24;100733.53;;;15.93;100.00
31082;BME280;17737;52.586;13.284;2022-09-09T06:28:54;100729.66;;;15.98;100.00
31082;BME280;17737;52.586;13.284;2022-09-09T06:31:24;100721.84;;;15.93;100.00
31082;BME280;17737;52.586;13.284;2022-09-09T06:33:57;100716.13;;;16.12;100.00
31082;BME280;17737;52.586;13.284;2022-09-09T06:36:28;100719.22;;;16.04;100.00
31082;BME280;17737;52.586;13.284;2022-09-09T06:38:58;100729.69;;;16.02;100.00
31082;BME280;17737;52.586;13.284;2022-09-09T06:41:27;100726.69;;;16.21;100.00
31082;BME280;17737;52.586;13.284;2022-09-09T06:43:56;100724.41;;;16.34;100.00
31082;BME280;17737;52.586;13.284;2022-09-09T06:46:24;100736.44;;;16.26;100.00
31082;BME280;17737;52.586;13.284;2022-09-09T06:48:54;100742.38;;;16.49;100.00
31082;BME280;17737;52.586;13.284;2022-09-09T06:51:25;100740.03;;;16.48;100.00
31082;BME280;17737;52.586;13.284;2022-09-09T06:53:56;100740.41;;;16.46;100.00
31082;BME280;17737;52.586;13.284;2022-09-09T06:56:29;100736.53;;;16.47;100.00
31082;BME280;17737;52.586;13.284;2022-09-09T06:58:58;100738.47;;;16.50;100.00
31082;BME280;17737;52.586;13.284;2022-09-09T07:01:30;100731.81;;;16.37;100.00
31082;BME280;17737;52.586;13.284;2022-09-09T07:04:00;100738.00;;;16.30;100.00
31082;BME280;17737;52.586;13.284;2022-09-09T07:06:31;100724.50;;;16.55;100.00
31082;BME280;17737;52.586;13.284;2022-09-09T07:09:02;100719.94;;;16.77;100.00
31082;BME280;17737;52.586;13.284;2022-09-09T07:11:31;100723.13;;;17.01;100.00
31082;BME280;17737;52.586;13.284;2022-09-09T07:14:01;100724.69;;;17.20;100.00
31082;BME280;17737;52.586;13.284;2022-09-09T07:16:28;100728.97;;;17.21;100.00
31082;BME280;17737;52.586;13.284;2022-09-09T07:18:58;100721.94;;;16.95;100.00
31082;BME280;17737;52.586;13.284;2022-09-09T07:21:27;100721.91;;;16.87;100.00
31082;BME280;17737;52.586;13.284;2022-09-09T07:23:58;100727.34;;;16.84;100.00
31082;BME280;17737;52.586;13.284;2022-09-09T07:26:27;100726.22;;;16.99;100.00
31082;BME280;17737;52.586;13.284;2022-09-09T07:28:56;100730.91;;;17.13;100.00
31082;BME280;17737;52.586;13.284;2022-09-09T07:31:24;100721.97;;;17.20;100.00
31082;BME280;17737;52.586;13.284;2022-09-09T07:33:54;100720.84;;;17.53;100.00
31082;BME280;17737;52.586;13.284;2022-09-09T07:36:22;100720.41;;;17.72;100.00
31082;BME280;17737;52.586;13.284;2022-09-09T07:39:01;100725.09;;;17.65;100.00
31082;BME280;17737;52.586;13.284;2022-09-09T07:41:31;100721.19;;;17.91;100.00
31082;BME280;17737;52.586;13.284;2022-09-09T07:44:03;100717.31;;;17.85;100.00
31082;BME280;17737;52.586;13.284;2022-09-09T07:46:33;100717.69;;;17.94;100.00
31082;BME280;17737;52.586;13.284;2022-09-09T07:49:01;100715.72;;;18.01;100.00
31082;BME280;17737;52.586;13.284;2022-09-09T07:51:30;100727.00;;;18.07;100.00
31082;BME280;17737;52.586;13.284;2022-09-09T07:54:02;100720.38;;;18.12;100.00
31082;BME280;17737;52.586;13.284;2022-09-09T07:56:31;100730.09;;;18.20;100.00
31082;BME280;17737;52.586;13.284;2022-09-09T07:58:59;100727.38;;;18.16;100.00
31082;BME280;17737;52.586;13.284;2022-09-09T08:01:28;100733.22;;;18.08;100.00
31082;BME280;17737;52.586;13.284;2022-09-09T08:03:58;100735.56;;;18.16;100.00
31082;BME280;17737;52.586;13.284;2022-09-09T08:06:27;100731.63;;;18.28;100.00
31082;BME280;17737;52.586;13.284;2022-09-09T08:08:56;100736.25;;;18.45;100.00
31082;BME280;17737;52.586;13.284;2022-09-09T08:11:26;100726.06;;;18.60;100.00
31082;BME280;17737;52.586;13.284;2022-09-09T08:13:59;100724.91;;;18.54;100.00
31082;BME280;17737;52.586;13.284;2022-09-09T08:16:28;100729.91;;;18.73;100.00
31082;BME280;17737;52.586;13.284;2022-09-09T08:18:58;100727.97;;;18.70;100.00
31082;BME280;17737;52.586;13.284;2022-09-09T08:21:26;100733.41;;;18.77;100.00
31082;BME280;17737;52.586;13.284;2022-09-09T08:23:56;100728.56;;;19.03;100.00
31082;BME280;17737;52.586;13.284;2022-09-09T08:26:27;100731.72;;;18.94;100.00
31082;BME280;17737;52.586;13.284;2022-09-09T08:28:57;100733.03;;;18.68;100.00
31082;BME280;17737;52.586;13.284;2022-09-09T08:31:26;100727.59;;;18.65;100.00
31082;BME280;17737;52.586;13.284;2022-09-09T08:33:56;100723.28;;;18.74;100.00
31082;BME280;17737;52.586;13.284;2022-09-09T08:36:26;100717.75;;;18.85;100.00
31082;BME280;17737;52.586;13.284;2022-09-09T08:38:56;100723.59;;;18.87;100.00
31082;BME280;17737;52.586;13.284;2022-09-09T08:41:33;100723.38;;;19.23;100.00
31082;BME280;17737;52.586;13.284;2022-09-09T08:44:10;100725.59;;;19.35;100.00
31082;BME280;17737;52.586;13.284;2022-09-09T08:46:44;100722.81;;;19.42;100.00
31082;BME280;17737;52.586;13.284;2022-09-09T08:49:32;100730.63;;;19.44;100.00
31082;BME280;17737;52.586;13.284;2022-09-09T08:52:16;100727.47;;;19.45;100.00
31082;BME280;17737;52.586;13.284;2022-09-09T08:54:49;100730.66;;;19.40;100.00
31082;BME280;17737;52.586;13.284;2022-09-09T08:57:20;100727.94;;;19.37;100.00
31082;BME280;17737;52.586;13.284;2022-09-09T08:59:53;100733.88;;;19.28;100.00
31082;BME280;17737;52.586;13.284;2022-09-09T09:02:25;100728.97;;;19.01;100.00
31082;BME280;17737;52.586;13.284;2022-09-09T09:05:04;100732.88;;;19.00;100.00
31082;BME280;17737;52.586;13.284;2022-09-09T09:07:46;100731.31;;;18.99;100.00
31082;BME280;17737;52.586;13.284;2022-09-09T09:10:28;100742.19;;;19.10;100.00
31082;BME280;17737;52.586;13.284;2022-09-09T09:13:12;100734.09;;;19.48;100.00
31082;BME280;17737;52.586;13.284;2022-09-09T09:15:43;100736.25;;;19.75;100.00
31082;BME280;17737;52.586;13.284;2022-09-09T09:18:19;100731.25;;;19.66;100.00
31082;BME280;17737;52.586;13.284;2022-09-09T09:20:50;100737.81;;;19.76;100.00
31082;BME280;17737;52.586;13.284;2022-09-09T09:23:26;100738.75;;;20.00;100.00
31082;BME280;17737;52.586;13.284;2022-09-09T09:26:02;100734.81;;;20.01;100.00
31082;BME280;17737;52.586;13.284;2022-09-09T09:28:38;100738.09;;;19.88;100.00
31082;BME280;17737;52.586;13.284;2022-09-09T09:31:09;100734.72;;;20.11;100.00
31082;BME280;17737;52.586;13.284;2022-09-09T09:33:40;100733.97;;;20.41;100.00
31082;BME280;17737;52.586;13.284;2022-09-09T09:36:14;100725.78;;;21.03;100.00
31082;BME280;17737;52.586;13.284;2022-09-09T09:38:51;100718.63;;;21.32;100.00
31082;BME280;17737;52.586;13.284;2022-09-09T09:41:42;100720.00;;;21.48;100.00
31082;BME280;17737;52.586;13.284;2022-09-09T09:44:22;100720.19;;;21.33;100.00
31082;BME280;17737;52.586;13.284;2022-09-09T09:46:51;100714.09;;;21.49;100.00
31082;BME280;17737;52.586;13.284;2022-09-09T09:49:20;100724.88;;;21.09;100.00
31082;BME280;17737;52.586;13.284;2022-09-09T09:51:48;100719.41;;;21.09;100.00
31082;BME280;17737;52.586;13.284;2022-09-09T09:54:17;100723.25;;;20.58;100.00
31082;BME280;17737;52.586;13.284;2022-09-09T09:56:53;100722.69;;;20.70;100.00
31082;BME280;17737;52.586;13.284;2022-09-09T09:59:24;100729.84;;;20.60;100.00
31082;BME280;17737;52.586;13.284;2022-09-09T10:02:11;100722.53;;;20.50;100.00
31082;BME280;17737;52.586;13.284;2022-09-09T10:04:42;100727.16;;;20.23;100.00
31082;BME280;17737;52.586;13.284;2022-09-09T10:07:11;100730.69;;;20.23;100.00
31082;BME280;17737;52.586;13.284;2022-09-09T10:09:40;100731.25;;;20.41;100.00
31082;BME280;17737;52.586;13.284;2022-09-09T10:12:11;100728.09;;;20.43;100.00
31082;BME280;17737;52.586;13.284;2022-09-09T10:14:52;100728.16;;;20.36;100.00
31082;BME280;17737;52.586;13.284;2022-09-09T10:17:30;100730.56;;;19.96;100.00
31082;BME280;17737;52.586;13.284;2022-09-09T10:20:14;100730.91;;;20.02;100.00
31082;BME280;17737;52.586;13.284;2022-09-09T10:22:51;100735.00;;;20.21;100.00
31082;BME280;17737;52.586;13.284;2022-09-09T10:25:26;100731.00;;;20.63;100.00
31082;BME280;17737;52.586;13.284;2022-09-09T10:28:20;100730.72;;;20.84;100.00
31082;BME280;17737;52.586;13.284;2022-09-09T10:31:00;100726.50;;;20.46;100.00
31082;BME280;17737;52.586;13.284;2022-09-09T10:33:43;100732.19;;;20.28;100.00
31082;BME280;17737;52.586;13.284;2022-09-09T10:36:18;100737.53;;;20.38;100.00
31082;BME280;17737;52.586;13.284;2022-09-09T10:38:49;100726.16;;;20.40;100.00
31082;BME280;17737;52.586;13.284;2022-09-09T10:41:25;100733.50;;;20.47;100.00
31082;BME280;17737;52.586;13.284;2022-09-09T10:44:15;100735.78;;;20.86;100.00
31082;BME280;17737;52.586;13.284;2022-09-09T10:47:00;100728.63;;;21.19;100.00
31082;BME280;17737;52.586;13.284;2022-09-09T10:52:44;100717.78;;;21.63;100.00
31082;BME280;17737;52.586;13.284;2022-09-09T10:55:24;100710.91;;;21.51;100.00
31082;BME280;17737;52.586;13.284;2022-09-09T10:57:57;100714.03;;;21.53;100.00
31082;BME280;17737;52.586;13.284;2022-09-09T11:00:30;100719.06;;;21.31;100.00
31082;BME280;17737;52.586;13.284;2022-09-09T11:03:09;100711.09;;;21.40;100.00
31082;BME280;17737;52.586;13.284;2022-09-09T11:05:45;100713.00;;;21.43;100.00
31082;BME280;17737;52.586;13.284;2022-09-09T11:08:17;100718.06;;;21.68;100.00
31082;BME280;17737;52.586;13.284;2022-09-09T11:10:52;100711.09;;;21.64;100.00
31082;BME280;17737;52.586;13.284;2022-09-09T11:13:26;100710.69;;;21.85;100.00
31082;BME280;17737;52.586;13.284;2022-09-09T11:16:04;100710.66;;;22.08;100.00
31082;BME280;17737;52.586;13.284;2022-09-09T11:18:45;100702.69;;;21.94;100.00
31082;BME280;17737;52.586;13.284;2022-09-09T11:21:15;100710.91;;;21.74;100.00
31082;BME280;17737;52.586;13.284;2022-09-09T11:23:49;100723.38;;;21.79;100.00
31082;BME280;17737;52.586;13.284;2022-09-09T11:26:24;100714.22;;;21.85;100.00
31082;BME280;17737;52.586;13.284;2022-09-09T11:29:02;100713.41;;;22.08;100.00
31082;BME280;17737;52.586;13.284;2022-09-09T11:31:52;100713.00;;;22.10;100.00
31082;BME280;17737;52.586;13.284;2022-09-09T11:34:38;100709.88;;;22.48;100.00
31082;BME280;17737;52.586;13.284;2022-09-09T11:37:23;100707.66;;;22.79;100.00
31082;BME280;17737;52.586;13.284;2022-09-09T11:40:09;100701.28;;;22.82;100.00
31082;BME280;17737;52.586;13.284;2022-09-09T11:42:45;100705.72;;;22.60;100.00
31082;BME280;17737;52.586;13.284;2022-09-09T11:45:19;100707.75;;;22.92;100.00
31082;BME280;17737;52.586;13.284;2022-09-09T11:47:52;100692.09;;;23.25;100.00
31082;BME280;17737;52.586;13.284;2022-09-09T11:50:30;100691.34;;;23.54;95.19
31082;BME280;17737;52.586;13.284;2022-09-09T11:58:37;100682.69;;;23.22;89.95
31082;BME280;17737;52.586;13.284;2022-09-09T12:04:11;100671.00;;;23.35;87.83
31082;BME280;17737;52.586;13.284;2022-09-09T12:06:50;100666.72;;;23.01;89.50
31082;BME280;17737;52.586;13.284;2022-09-09T12:09:22;100671.25;;;23.24;91.94
31082;BME280;17737;52.586;13.284;2022-09-09T12:12:04;100667.59;;;23.14;91.55
31082;BME280;17737;52.586;13.284;2022-09-09T12:14:35;100670.34;;;23.14;92.41
31082;BME280;17737;52.586;13.284;2022-09-09T12:17:17;100664.81;;;23.31;87.57
31082;BME280;17737;52.586;13.284;2022-09-09T12:19:48;100656.81;;;23.36;86.96
31082;BME280;17737;52.586;13.284;2022-09-09T12:22:30;100655.63;;;23.21;87.28
31082;BME280;17737;52.586;13.284;2022-09-09T12:25:08;100656.09;;;22.67;86.66
31082;BME280;17737;52.586;13.284;2022-09-09T12:27:52;100653.06;;;22.61;85.83
31082;BME280;17737;52.586;13.284;2022-09-09T12:30:31;100650.84;;;22.56;86.72
31082;BME280;17737;52.586;13.284;2022-09-09T12:33:08;100649.63;;;22.93;86.15
31082;BME280;17737;52.586;13.284;2022-09-09T12:35:38;100650.47;;;23.07;85.60
31082;BME280;17737;52.586;13.284;2022-09-09T12:38:13;100645.78;;;22.71;87.44
31082;BME280;17737;52.586;13.284;2022-09-09T12:40:53;100642.56;;;22.92;88.63
31082;BME280;17737;52.586;13.284;2022-09-09T12:43:23;100641.44;;;23.22;87.71
31082;BME280;17737;52.586;13.284;2022-09-09T12:45:53;100628.59;;;23.48;81.31
31082;BME280;17737;52.586;13.284;2022-09-09T12:48:31;100634.88;;;23.49;78.58
31082;BME280;17737;52.586;13.284;2022-09-09T12:51:03;100634.97;;;23.45;80.38
31082;BME280;17737;52.586;13.284;2022-09-09T12:53:36;100631.28;;;23.81;82.60
31082;BME280;17737;52.586;13.284;2022-09-09T12:56:05;100627.84;;;23.77;81.47
31082;BME280;17737;52.586;13.284;2022-09-09T12:58:36;100639.91;;;23.67;82.23
31082;BME280;17737;52.586;13.284;2022-09-09T13:01:17;100641.06;;;23.37;81.81
31082;BME280;17737;52.586;13.284;2022-09-09T13:03:49;100644.47;;;22.95;83.09
31082;BME280;17737;52.586;13.284;2022-09-09T13:06:19;100640.03;;;22.65;84.45
31082;BME280;17737;52.586;13.284;2022-09-09T13:08:56;100653.59;;;22.56;85.64